createdAt,value
2022-09-28T00:00:09.845Z,78.25
2022-09-28T00:05:15.658Z,78.97
2022-09-28T00:10:18.489Z,78.94
2022-09-28T00:15:21.876Z,78.66
2022-09-28T00:20:24.537Z,79.06
2022-09-28T00:25:28.434Z,79.61
2022-09-28T00:30:31.112Z,79.89
2022-09-28T00:35:34.590Z,80.46
2022-09-28T00:40:37.290Z,79.84
2022-09-28T00:45:40.263Z,80.58
2022-09-28T00:50:44.135Z,80.68
2022-09-28T00:55:52.810Z,80.21
2022-09-28T01:00:57.582Z,80.69
2022-09-28T01:06:02.771Z,80.44
2022-09-28T01:11:06.084Z,80.82
2022-09-28T01:16:42.685Z,81.11
2022-09-28T01:22:38.616Z,80.31
2022-09-28T01:27:43.414Z,80.86
2022-09-28T01:33:05.634Z,80.45
2022-09-28T01:38:18.958Z,80.21
2022-09-28T01:43:25.906Z,80.39
2022-09-28T01:49:09.386Z,80.35
2022-09-28T01:54:25.062Z,80.37
2022-09-28T01:59:30.207Z,79.70
2022-09-28T02:04:35.488Z,80.12
2022-09-28T02:09:56.447Z,80.25
2022-09-28T02:15:11.197Z,80.97
2022-09-28T02:20:14.568Z,80.40
2022-09-28T02:25:29.289Z,80.50
2022-09-28T02:30:34.251Z,80.19
2022-09-28T02:35:38.709Z,79.35
2022-09-28T02:40:44.978Z,79.00
2022-09-28T02:46:08.983Z,79.69
2022-09-28T02:51:38.614Z,78.92
2022-09-28T02:57:15.572Z,78.80
2022-09-28T03:02:26.381Z,79.03
2022-09-28T03:07:50.678Z,79.19
2022-09-28T03:12:54.335Z,79.04
2022-09-28T03:17:58.663Z,78.26
2022-09-28T03:28:24.962Z,78.59
2022-09-28T03:33:28.038Z,77.97
2022-09-28T03:38:30.981Z,77.89
2022-09-28T03:43:34.550Z,78.56
2022-09-28T03:48:38.503Z,79.13
2022-09-28T03:53:41.282Z,79.63
2022-09-28T03:58:44.356Z,79.37
2022-09-28T04:03:48.480Z,79.03
2022-09-28T04:08:51.224Z,79.49
2022-09-28T04:13:54.394Z,79.70
2022-09-28T04:18:59.164Z,80.47
2022-09-28T04:24:01.928Z,80.21
2022-09-28T04:29:17.333Z,79.24
2022-09-28T04:34:36.471Z,80.09
2022-09-28T04:39:44.992Z,80.55
2022-09-28T04:44:52.590Z,80.60
2022-09-28T04:49:55.490Z,80.74
2022-09-28T04:55:06.921Z,80.58
2022-09-28T05:00:11.086Z,81.18
2022-09-28T05:05:16.331Z,81.54
2022-09-28T05:10:41.885Z,82.16
2022-09-28T05:15:44.774Z,81.93
2022-09-28T05:20:47.549Z,82.36
2022-09-28T05:25:51.333Z,82.95
2022-09-28T05:31:05.104Z,83.11
2022-09-28T05:36:31.317Z,84.11
2022-09-28T05:41:34.620Z,85.90
2022-09-28T05:46:37.587Z,85.80
2022-09-28T05:51:40.539Z,86.64
2022-09-28T05:56:44.689Z,87.92
2022-09-28T06:01:47.459Z,87.96
2022-09-28T06:06:50.315Z,88.94
2022-09-28T06:11:53.440Z,89.29
2022-09-28T06:17:21.958Z,90.53
2022-09-28T06:22:33.853Z,91.43
2022-09-28T06:27:42.924Z,92.12
2022-09-28T06:32:45.806Z,91.93
2022-09-28T06:37:48.579Z,92.72
2022-09-28T06:43:01.383Z,93.32
2022-09-28T06:48:26.895Z,93.28
2022-09-28T06:53:29.992Z,93.48
2022-09-28T06:58:36.580Z,93.06
2022-09-28T07:03:40.997Z,93.25
2022-09-28T07:08:51.598Z,93.17
2022-09-28T07:14:24.776Z,92.92
2022-09-28T07:19:32.433Z,93.62
2022-09-28T07:24:35.209Z,93.43
2022-09-28T07:30:14.341Z,94.06
2022-09-28T07:35:35.034Z,94.08
2022-09-28T07:40:57.338Z,94.07
2022-09-28T07:46:00.216Z,93.93
2022-09-28T07:51:03.336Z,93.70
2022-09-28T07:56:17.612Z,93.98
2022-09-28T08:01:38.629Z,93.03
2022-09-28T08:06:42.853Z,91.95
2022-09-28T08:11:47.552Z,91.75
2022-09-28T08:17:19.451Z,91.44
2022-09-28T08:22:25.960Z,91.58
2022-09-28T08:27:31.635Z,92.15
2022-09-28T08:32:36.119Z,93.06
2022-09-28T08:37:57.090Z,92.62
2022-09-28T08:44:01.190Z,92.37
2022-09-28T08:49:30.845Z,93.03
2022-09-28T08:55:05.129Z,93.40
2022-09-28T09:00:49.086Z,94.54
2022-09-28T09:06:18.148Z,94.59
2022-09-28T09:11:55.305Z,95.08
2022-09-28T09:17:01.192Z,95.78
2022-09-28T09:22:27.997Z,95.43
2022-09-28T09:27:42.726Z,96.30
2022-09-28T09:32:55.276Z,96.59
2022-09-28T09:38:09.791Z,96.13
2022-09-28T09:44:02.831Z,96.01
2022-09-28T09:49:47.070Z,96.95
2022-09-28T09:55:05.229Z,96.86
2022-09-28T10:00:28.784Z,97.54
2022-09-28T10:05:43.449Z,97.79
2022-09-28T10:10:51.330Z,98.13
2022-09-28T10:15:55.848Z,98.35
2022-09-28T10:21:04.471Z,97.74
2022-09-28T10:26:38.102Z,97.92
2022-09-28T10:31:44.920Z,98.82
2022-09-28T10:37:01.580Z,98.75
2022-09-28T10:42:12.899Z,99.43
2022-09-28T10:47:15.901Z,99.17
2022-09-28T10:52:43.156Z,99.32
2022-09-28T10:57:53.168Z,99.82
2022-09-28T11:02:57.394Z,99.80
2022-09-28T11:08:07.137Z,99.62
2022-09-28T11:13:17.790Z,99.98
2022-09-28T11:18:32.745Z,99.97
2022-09-28T11:23:42.519Z,100.00
2022-09-28T11:28:54.458Z,100.00
2022-09-28T11:34:17.411Z,100.00
2022-09-28T11:39:51.747Z,100.00
2022-09-28T11:45:16.881Z,100.00
2022-09-28T11:50:35.098Z,100.00
2022-09-28T11:55:50.924Z,100.00
2022-09-28T12:01:04.766Z,100.00
2022-09-28T12:06:38.079Z,100.00
2022-09-28T12:11:44.254Z,100.00
2022-09-28T12:17:07.752Z,100.00
2022-09-28T12:22:32.131Z,100.00
2022-09-28T12:27:54.483Z,100.00
2022-09-28T12:33:05.108Z,100.00
2022-09-28T12:38:26.050Z,100.00
2022-09-28T12:43:43.556Z,100.00
2022-09-28T12:54:49.255Z,100.00
2022-09-28T13:00:04.748Z,100.00
2022-09-28T13:05:29.103Z,100.00
2022-09-28T13:10:57.712Z,100.00
2022-09-28T13:16:24.280Z,100.00
2022-09-28T13:21:44.897Z,100.00
2022-09-28T13:26:48.092Z,100.00
2022-09-28T13:31:57.085Z,100.00
2022-09-28T13:37:17.229Z,100.00
2022-09-28T13:42:42.241Z,100.00
2022-09-28T13:47:59.839Z,100.00
2022-09-28T13:53:47.558Z,100.00
2022-09-28T13:58:58.389Z,100.00
2022-09-28T14:04:19.418Z,100.00
2022-09-28T14:09:29.875Z,100.00
2022-09-28T14:14:49.545Z,100.00
2022-09-28T14:20:01.582Z,100.00
2022-09-28T14:25:15.648Z,100.00
2022-09-28T14:30:26.905Z,100.00
2022-09-28T14:35:59.216Z,100.00
2022-09-28T14:41:15.576Z,100.00
2022-09-28T14:46:18.519Z,100.00
2022-09-28T14:51:27.057Z,100.00
2022-09-28T14:56:33.651Z,100.00
2022-09-28T15:01:36.495Z,100.00
2022-09-28T15:06:49.159Z,100.00
2022-09-28T15:11:59.012Z,100.00
2022-09-28T15:17:09.665Z,100.00
2022-09-28T15:22:17.099Z,100.00
2022-09-28T15:27:19.855Z,100.00
2022-09-28T15:32:30.134Z,100.00
2022-09-28T15:37:40.237Z,100.00
2022-09-28T15:42:45.601Z,100.00
2022-09-28T15:47:48.738Z,100.00
2022-09-28T15:53:00.990Z,100.00
2022-09-28T15:58:08.353Z,99.82
2022-09-28T16:03:11.001Z,99.80
2022-09-28T16:08:24.685Z,99.15
2022-09-28T16:13:27.498Z,99.74
2022-09-28T16:18:31.098Z,99.63
2022-09-28T16:23:34.680Z,99.56
2022-09-28T16:28:37.361Z,99.34
2022-09-28T16:33:52.926Z,98.98
2022-09-28T16:38:56.096Z,99.59
2022-09-28T16:44:02.351Z,99.25
2022-09-28T16:49:07.186Z,99.25
2022-09-28T16:54:37.391Z,99.34
2022-09-28T16:59:40.194Z,98.54
2022-09-28T17:04:47.517Z,98.97
2022-09-28T17:09:50.419Z,98.48
2022-09-28T17:14:53.125Z,98.59
2022-09-28T17:19:56.302Z,98.49
2022-09-28T17:24:59.134Z,98.50
2022-09-28T17:30:02.213Z,98.88
2022-09-28T17:35:23.642Z,98.29
2022-09-28T17:40:28.827Z,98.33
2022-09-28T17:45:31.817Z,98.67
2022-09-28T17:50:35.596Z,98.57
2022-09-28T17:55:39.481Z,98.76
2022-09-28T18:00:42.203Z,98.45
2022-09-28T18:05:45.619Z,98.50
2022-09-28T18:10:48.446Z,98.19
2022-09-28T18:15:53.039Z,98.34
2022-09-28T18:20:55.804Z,98.24
2022-09-28T18:25:58.503Z,98.34
2022-09-28T18:31:07.764Z,98.21
2022-09-28T18:36:10.487Z,98.38
2022-09-28T18:41:16.108Z,97.92
2022-09-28T18:46:19.466Z,97.99
2022-09-28T18:51:22.481Z,97.67
2022-09-28T18:56:25.964Z,97.71
2022-09-28T19:01:30.720Z,98.04
2022-09-28T19:06:34.876Z,98.16
2022-09-28T19:11:37.831Z,97.64
2022-09-28T19:16:40.474Z,98.13
2022-09-28T19:21:46.370Z,98.24
2022-09-28T19:26:49.268Z,98.62
2022-09-28T19:31:52.451Z,98.19
2022-09-28T19:36:55.158Z,98.17
2022-09-28T19:41:59.787Z,97.91
2022-09-28T19:47:07.215Z,98.17
2022-09-28T19:52:18.734Z,99.01
2022-09-28T19:57:21.987Z,98.58
2022-09-28T20:02:24.758Z,98.84
2022-09-28T20:07:27.427Z,98.47
2022-09-28T20:12:30.149Z,98.68
2022-09-28T20:17:32.859Z,98.59
2022-09-28T20:22:35.511Z,98.47
2022-09-28T20:27:40.077Z,98.11
2022-09-28T20:32:46.088Z,98.71
2022-09-28T20:37:51.561Z,98.54
2022-09-28T20:42:55.184Z,98.02
2022-09-28T20:47:58.061Z,98.65
2022-09-28T20:53:01.572Z,98.50
2022-09-28T20:58:04.945Z,98.31
2022-09-28T21:03:08.845Z,98.27
2022-09-28T21:08:11.790Z,98.17
2022-09-28T21:13:14.529Z,98.97
2022-09-28T21:18:18.298Z,98.10
2022-09-28T21:23:24.770Z,97.89
2022-09-28T21:28:27.758Z,98.35
2022-09-28T21:33:30.497Z,98.54
2022-09-28T21:38:33.733Z,98.44
2022-09-28T21:43:37.112Z,98.54
2022-09-28T21:48:40.140Z,99.13
2022-09-28T21:53:43.177Z,98.28
2022-09-28T21:58:46.144Z,98.26
2022-09-28T22:03:50.987Z,98.43
2022-09-28T22:08:54.040Z,98.51
2022-09-28T22:13:59.289Z,98.55
2022-09-28T22:19:02.230Z,98.37
2022-09-28T22:24:07.522Z,98.65
2022-09-28T22:29:11.139Z,98.85
2022-09-28T22:34:13.786Z,98.64
2022-09-28T22:39:16.536Z,98.53
2022-09-28T22:44:20.343Z,98.95
2022-09-28T22:49:23.156Z,98.61
2022-09-28T22:54:25.852Z,98.62
2022-09-28T22:59:28.482Z,98.87
2022-09-28T23:04:32.297Z,99.00
2022-09-28T23:09:34.974Z,98.38
2022-09-28T23:14:37.703Z,98.62
2022-09-28T23:19:40.323Z,98.08
2022-09-28T23:24:42.987Z,98.46
2022-09-28T23:29:49.428Z,98.10
2022-09-28T23:34:52.115Z,98.29
2022-09-28T23:39:54.892Z,98.08
2022-09-28T23:44:57.514Z,98.13
2022-09-28T23:50:00.186Z,98.03
2022-09-28T23:55:02.869Z,98.07
